< < Back
Terminal Aerodrome Forecast


Current Version              Previous Versions:   1  2  3  4  5  6  7  8  9  

Terminal Aerodrome Forecast

542
FTUS42 KMLB 241700
TAFMCO
TAF
KMCO 241736Z 2418/2518 05012G18KT P6SM SCT040
     FM250000 01008KT P6SM FEW250
     FM250400 34006KT P6SM FEW250=

Latest METAR

100
SAUS70 KWBC 250000 RRF
MTRMCO
METAR KMCO 242353Z 03007KT 10SM SCT044 SCT250 22/14 A2994 RMK AO2 SLP136
T02220139 10278 20222 53008 $


USA.gov is the U.S. government's official web portal to all federal, state and local government web resources and services.